sensor_id;sensor_type;location;lat;lon;timestamp;P1;durP1;ratioP1;P2;durP2;ratioP2
29414;SDS011;20303;48.302;11.914;2023-05-16T00:00:29;7.72;;;5.38;;
29414;SDS011;20303;48.302;11.914;2023-05-16T00:10:34;8.82;;;5.15;;
29414;SDS011;20303;48.302;11.914;2023-05-16T00:20:35;8.25;;;5.13;;
29414;SDS011;20303;48.302;11.914;2023-05-16T00:30:36;10.48;;;5.35;;
29414;SDS011;20303;48.302;11.914;2023-05-16T00:40:37;6.90;;;4.80;;
29414;SDS011;20303;48.302;11.914;2023-05-16T00:50:38;6.32;;;4.50;;
29414;SDS011;20303;48.302;11.914;2023-05-16T01:00:39;6.82;;;4.22;;
29414;SDS011;20303;48.302;11.914;2023-05-16T01:11:03;6.30;;;4.20;;
29414;SDS011;20303;48.302;11.914;2023-05-16T01:21:15;5.63;;;4.35;;
29414;SDS011;20303;48.302;11.914;2023-05-16T01:31:22;7.15;;;3.95;;
29414;SDS011;20303;48.302;11.914;2023-05-16T01:41:24;5.63;;;3.78;;
29414;SDS011;20303;48.302;11.914;2023-05-16T01:51:31;6.45;;;4.28;;
29414;SDS011;20303;48.302;11.914;2023-05-16T02:01:32;4.70;;;3.78;;
29414;SDS011;20303;48.302;11.914;2023-05-16T02:11:33;5.40;;;3.80;;
29414;SDS011;20303;48.302;11.914;2023-05-16T02:21:34;7.60;;;3.70;;
29414;SDS011;20303;48.302;11.914;2023-05-16T02:31:35;5.70;;;3.67;;
29414;SDS011;20303;48.302;11.914;2023-05-16T02:41:36;4.57;;;3.50;;
29414;SDS011;20303;48.302;11.914;2023-05-16T02:51:37;5.13;;;3.20;;
29414;SDS011;20303;48.302;11.914;2023-05-16T03:01:38;4.55;;;3.40;;
29414;SDS011;20303;48.302;11.914;2023-05-16T03:11:40;4.25;;;3.00;;
29414;SDS011;20303;48.302;11.914;2023-05-16T03:21:41;3.92;;;3.28;;
29414;SDS011;20303;48.302;11.914;2023-05-16T03:31:42;3.40;;;2.92;;
29414;SDS011;20303;48.302;11.914;2023-05-16T03:41:43;4.25;;;3.33;;
29414;SDS011;20303;48.302;11.914;2023-05-16T03:51:44;3.60;;;3.00;;
29414;SDS011;20303;48.302;11.914;2023-05-16T04:01:45;4.25;;;3.00;;
29414;SDS011;20303;48.302;11.914;2023-05-16T04:11:46;3.38;;;2.70;;
29414;SDS011;20303;48.302;11.914;2023-05-16T04:21:47;3.22;;;2.90;;
29414;SDS011;20303;48.302;11.914;2023-05-16T04:31:49;3.03;;;2.72;;
29414;SDS011;20303;48.302;11.914;2023-05-16T04:41:50;3.75;;;2.90;;
29414;SDS011;20303;48.302;11.914;2023-05-16T04:51:51;4.15;;;2.72;;
29414;SDS011;20303;48.302;11.914;2023-05-16T05:01:53;3.17;;;2.88;;
29414;SDS011;20303;48.302;11.914;2023-05-16T05:11:54;3.33;;;2.60;;
29414;SDS011;20303;48.302;11.914;2023-05-16T05:21:55;3.30;;;2.58;;
29414;SDS011;20303;48.302;11.914;2023-05-16T05:31:56;2.70;;;2.50;;
29414;SDS011;20303;48.302;11.914;2023-05-16T05:41:57;2.95;;;2.60;;
29414;SDS011;20303;48.302;11.914;2023-05-16T05:51:58;2.88;;;2.38;;
29414;SDS011;20303;48.302;11.914;2023-05-16T06:01:59;2.60;;;2.40;;
29414;SDS011;20303;48.302;11.914;2023-05-16T06:12:00;2.58;;;2.38;;
29414;SDS011;20303;48.302;11.914;2023-05-16T06:22:03;3.05;;;2.30;;
29414;SDS011;20303;48.302;11.914;2023-05-16T06:32:04;2.65;;;2.33;;
29414;SDS011;20303;48.302;11.914;2023-05-16T06:42:05;4.65;;;2.33;;
29414;SDS011;20303;48.302;11.914;2023-05-16T06:52:06;2.55;;;2.22;;
29414;SDS011;20303;48.302;11.914;2023-05-16T07:02:07;2.75;;;2.50;;
29414;SDS011;20303;48.302;11.914;2023-05-16T07:12:08;3.08;;;2.22;;
29414;SDS011;20303;48.302;11.914;2023-05-16T07:22:10;2.40;;;2.20;;
29414;SDS011;20303;48.302;11.914;2023-05-16T07:32:11;2.67;;;2.20;;
29414;SDS011;20303;48.302;11.914;2023-05-16T07:42:12;2.88;;;2.35;;
29414;SDS011;20303;48.302;11.914;2023-05-16T07:52:13;3.28;;;2.40;;
29414;SDS011;20303;48.302;11.914;2023-05-16T08:02:14;4.63;;;2.40;;
29414;SDS011;20303;48.302;11.914;2023-05-16T08:12:15;3.70;;;2.75;;
29414;SDS011;20303;48.302;11.914;2023-05-16T08:22:17;3.90;;;2.67;;
29414;SDS011;20303;48.302;11.914;2023-05-16T08:32:18;3.67;;;2.67;;
29414;SDS011;20303;48.302;11.914;2023-05-16T08:42:20;4.32;;;2.60;;
29414;SDS011;20303;48.302;11.914;2023-05-16T08:52:21;5.18;;;2.42;;
29414;SDS011;20303;48.302;11.914;2023-05-16T09:02:26;3.85;;;2.67;;
29414;SDS011;20303;48.302;11.914;2023-05-16T09:12:27;6.97;;;2.83;;
29414;SDS011;20303;48.302;11.914;2023-05-16T09:22:28;3.88;;;2.60;;
29414;SDS011;20303;48.302;11.914;2023-05-16T09:32:30;7.28;;;2.83;;
29414;SDS011;20303;48.302;11.914;2023-05-16T09:42:31;7.30;;;3.03;;
29414;SDS011;20303;48.302;11.914;2023-05-16T09:52:32;6.38;;;2.88;;
29414;SDS011;20303;48.302;11.914;2023-05-16T10:02:33;5.38;;;3.00;;
29414;SDS011;20303;48.302;11.914;2023-05-16T10:12:35;6.90;;;3.20;;
29414;SDS011;20303;48.302;11.914;2023-05-16T10:22:39;4.68;;;3.20;;
29414;SDS011;20303;48.302;11.914;2023-05-16T10:32:43;5.68;;;3.60;;
29414;SDS011;20303;48.302;11.914;2023-05-16T10:42:54;4.22;;;3.40;;
29414;SDS011;20303;48.302;11.914;2023-05-16T11:13:58;13.90;;;12.50;;
29414;SDS011;20303;48.302;11.914;2023-05-16T11:34:30;18.60;;;16.60;;
29414;SDS011;20303;48.302;11.914;2023-05-16T11:44:31;20.10;;;8.55;;
29414;SDS011;20303;48.302;11.914;2023-05-16T11:54:32;11.38;;;6.60;;
29414;SDS011;20303;48.302;11.914;2023-05-16T12:04:34;13.52;;;7.72;;
29414;SDS011;20303;48.302;11.914;2023-05-16T12:14:37;8.68;;;6.43;;
29414;SDS011;20303;48.302;11.914;2023-05-16T12:24:39;7.20;;;5.45;;
29414;SDS011;20303;48.302;11.914;2023-05-16T12:34:40;7.63;;;5.57;;
29414;SDS011;20303;48.302;11.914;2023-05-16T12:44:50;16.65;;;13.32;;
29414;SDS011;20303;48.302;11.914;2023-05-16T12:54:55;18.10;;;16.20;;
29414;SDS011;20303;48.302;11.914;2023-05-16T13:04:56;16.70;;;14.93;;
29414;SDS011;20303;48.302;11.914;2023-05-16T13:14:57;17.23;;;15.40;;
29414;SDS011;20303;48.302;11.914;2023-05-16T13:24:58;15.75;;;13.30;;
29414;SDS011;20303;48.302;11.914;2023-05-16T13:45:00;10.27;;;7.97;;
29414;SDS011;20303;48.302;11.914;2023-05-16T13:55:02;10.55;;;7.35;;
29414;SDS011;20303;48.302;11.914;2023-05-16T14:05:04;7.55;;;6.18;;
29414;SDS011;20303;48.302;11.914;2023-05-16T14:15:06;8.90;;;7.05;;
29414;SDS011;20303;48.302;11.914;2023-05-16T14:25:07;8.77;;;6.90;;
29414;SDS011;20303;48.302;11.914;2023-05-16T14:45:09;9.48;;;8.27;;
29414;SDS011;20303;48.302;11.914;2023-05-16T14:55:10;9.48;;;7.80;;
29414;SDS011;20303;48.302;11.914;2023-05-16T15:05:12;9.52;;;8.23;;
29414;SDS011;20303;48.302;11.914;2023-05-16T15:15:13;32.38;;;22.75;;
29414;SDS011;20303;48.302;11.914;2023-05-16T15:25:14;21.85;;;15.77;;
29414;SDS011;20303;48.302;11.914;2023-05-16T15:45:16;14.57;;;11.87;;
29414;SDS011;20303;48.302;11.914;2023-05-16T15:55:18;14.55;;;10.77;;
29414;SDS011;20303;48.302;11.914;2023-05-16T16:15:20;12.30;;;9.17;;
29414;SDS011;20303;48.302;11.914;2023-05-16T16:35:21;10.90;;;8.43;;
29414;SDS011;20303;48.302;11.914;2023-05-16T16:45:24;11.32;;;8.23;;
29414;SDS011;20303;48.302;11.914;2023-05-16T16:55:26;10.40;;;7.70;;
29414;SDS011;20303;48.302;11.914;2023-05-16T17:05:27;11.70;;;7.32;;
29414;SDS011;20303;48.302;11.914;2023-05-16T17:15:28;9.85;;;7.00;;
29414;SDS011;20303;48.302;11.914;2023-05-16T17:25:29;7.60;;;6.80;;
29414;SDS011;20303;48.302;11.914;2023-05-16T17:35:30;9.38;;;7.00;;
29414;SDS011;20303;48.302;11.914;2023-05-16T17:45:31;7.13;;;6.20;;
29414;SDS011;20303;48.302;11.914;2023-05-16T17:55:32;7.75;;;6.18;;
29414;SDS011;20303;48.302;11.914;2023-05-16T18:05:34;7.65;;;6.28;;
29414;SDS011;20303;48.302;11.914;2023-05-16T18:15:35;9.88;;;5.97;;
29414;SDS011;20303;48.302;11.914;2023-05-16T18:25:36;7.45;;;5.53;;
29414;SDS011;20303;48.302;11.914;2023-05-16T18:35:38;7.35;;;5.93;;
29414;SDS011;20303;48.302;11.914;2023-05-16T18:45:39;7.10;;;5.82;;
29414;SDS011;20303;48.302;11.914;2023-05-16T18:55:40;8.32;;;5.63;;
29414;SDS011;20303;48.302;11.914;2023-05-16T19:05:41;7.97;;;5.15;;
29414;SDS011;20303;48.302;11.914;2023-05-16T19:15:42;5.60;;;5.10;;
29414;SDS011;20303;48.302;11.914;2023-05-16T19:25:43;8.55;;;5.35;;
29414;SDS011;20303;48.302;11.914;2023-05-16T19:35:47;10.75;;;7.00;;
29414;SDS011;20303;48.302;11.914;2023-05-16T19:45:50;10.43;;;5.93;;
29414;SDS011;20303;48.302;11.914;2023-05-16T19:55:51;6.75;;;5.60;;
29414;SDS011;20303;48.302;11.914;2023-05-16T20:05:52;12.40;;;6.22;;
29414;SDS011;20303;48.302;11.914;2023-05-16T20:15:53;12.75;;;7.70;;
29414;SDS011;20303;48.302;11.914;2023-05-16T20:25:55;20.13;;;11.43;;
29414;SDS011;20303;48.302;11.914;2023-05-16T20:35:56;17.70;;;10.50;;
29414;SDS011;20303;48.302;11.914;2023-05-16T20:45:57;20.00;;;9.68;;
29414;SDS011;20303;48.302;11.914;2023-05-16T20:55:58;17.90;;;9.02;;
29414;SDS011;20303;48.302;11.914;2023-05-16T21:05:59;15.48;;;8.02;;
29414;SDS011;20303;48.302;11.914;2023-05-16T21:16:00;13.05;;;7.30;;
29414;SDS011;20303;48.302;11.914;2023-05-16T21:26:01;11.82;;;6.93;;
29414;SDS011;20303;48.302;11.914;2023-05-16T21:36:02;10.80;;;6.57;;
29414;SDS011;20303;48.302;11.914;2023-05-16T21:46:03;13.07;;;6.13;;
29414;SDS011;20303;48.302;11.914;2023-05-16T21:56:05;11.25;;;6.80;;
29414;SDS011;20303;48.302;11.914;2023-05-16T22:06:06;10.10;;;5.43;;
29414;SDS011;20303;48.302;11.914;2023-05-16T22:16:07;12.65;;;5.30;;
29414;SDS011;20303;48.302;11.914;2023-05-16T22:26:08;8.88;;;4.80;;
29414;SDS011;20303;48.302;11.914;2023-05-16T22:36:09;12.63;;;5.22;;
29414;SDS011;20303;48.302;11.914;2023-05-16T22:46:10;10.40;;;4.53;;
29414;SDS011;20303;48.302;11.914;2023-05-16T22:56:11;9.25;;;4.25;;
29414;SDS011;20303;48.302;11.914;2023-05-16T23:06:13;8.48;;;4.47;;
29414;SDS011;20303;48.302;11.914;2023-05-16T23:16:14;8.13;;;3.72;;
29414;SDS011;20303;48.302;11.914;2023-05-16T23:26:15;6.50;;;3.85;;
29414;SDS011;20303;48.302;11.914;2023-05-16T23:36:16;5.47;;;3.58;;
29414;SDS011;20303;48.302;11.914;2023-05-16T23:46:17;6.47;;;3.70;;
29414;SDS011;20303;48.302;11.914;2023-05-16T23:56:18;4.85;;;3.55;;
